Time;durP1;ratioP1;P1;durP2;ratioP2;P2;SDS_P1;SDS_P2;PMS_P1;PMS_P2;Temp;Humidity;BMP_temperature;BMP_pressure;BME280_temperature;BME280_humidity;BME280_pressure;Samples;Min_cycle;Max_cycle;Signal;HPM_P1;HPM_P2
2023/05/01 00:00:03;;;;;;;0.10;0.10;;;;;;;6.63;86.90;98798.94;5111240;27;20066;-76
2023/05/01 00:02:34;;;;;;;0.20;0.20;;;;;;;6.57;86.92;98791.06;5118222;27;20138;-76
2023/05/01 00:05:00;;;;;;;0.20;0.20;;;;;;;6.59;86.77;98803.28;5121839;27;20043;-77
2023/05/01 00:07:29;;;;;;;0.10;0.10;;;;;;;6.58;86.59;98796.22;5118163;27;20560;-77
2023/05/01 00:09:56;;;;;;;0.20;0.20;;;;;;;6.56;86.71;98790.25;5115442;27;20146;-76
2023/05/01 00:12:22;;;;;;;0.10;0.10;;;;;;;6.58;86.76;98796.22;5087379;27;20088;-75
2023/05/01 00:14:49;;;;;;;0.20;0.20;;;;;;;6.58;86.74;98793.50;5109310;27;20139;-75
2023/05/01 00:17:15;;;;;;;0.10;0.10;;;;;;;6.61;86.59;98805.72;5105122;27;20051;-75
2023/05/01 00:19:42;;;;;;;0.10;0.10;;;;;;;6.62;86.69;98818.22;5107820;27;20069;-75
2023/05/01 00:22:08;;;;;;;0.13;0.13;;;;;;;6.65;86.34;98817.69;5104911;27;20161;-75
2023/05/01 00:24:36;;;;;;;0.10;0.10;;;;;;;6.69;86.19;98815.22;5120319;27;20533;-75
2023/05/01 00:27:02;;;;;;;;;;;;;;;6.67;86.06;98812.78;5110712;27;20050;-74
2023/05/01 00:29:28;;;;;;;0.10;0.10;;;;;;;6.69;86.09;98812.50;5107347;27;20670;-75
2023/05/01 00:31:54;;;;;;;0.10;0.10;;;;;;;6.71;85.41;98815.75;5108353;27;20560;-76
2023/05/01 00:34:21;;;;;;;0.10;0.10;;;;;;;6.73;85.34;98808.19;5104448;27;20467;-76
2023/05/01 00:36:47;;;;;;;0.10;0.10;;;;;;;6.73;85.15;98797.31;5113620;27;20241;-75
2023/05/01 00:39:14;;;;;;;0.10;0.10;;;;;;;6.73;85.20;98789.16;5112373;27;20542;-75
2023/05/01 00:41:41;;;;;;;0.10;0.10;;;;;;;6.70;84.91;98792.41;5112283;27;20051;-76
2023/05/01 00:44:08;;;;;;;0.10;0.10;;;;;;;6.74;84.74;98793.50;5106059;27;20051;-76
2023/05/01 00:46:34;;;;;;;0.10;0.10;;;;;;;6.77;84.79;98773.94;5092106;27;20057;-76
2023/05/01 00:49:00;;;;;;;0.10;0.10;;;;;;;6.75;84.64;98774.19;5105433;27;20322;-76
2023/05/01 00:51:28;;;;;;;0.15;0.15;;;;;;;6.76;84.66;98783.16;5088516;27;20047;-75
2023/05/01 00:53:55;;;;;;;0.10;0.10;;;;;;;6.77;84.69;98791.03;5088953;28;20437;-76
2023/05/01 00:56:21;;;;;;;0.10;0.10;;;;;;;6.77;84.15;98792.94;5079642;27;20055;-75
2023/05/01 00:58:53;;;;;;;0.10;0.10;;;;;;;6.76;84.15;98791.31;5110100;27;20046;-76
2023/05/01 01:01:20;;;;;;;0.10;0.10;;;;;;;6.79;83.97;98799.75;5124945;27;20043;-74
2023/05/01 01:03:46;;;;;;;0.10;0.10;;;;;;;6.79;83.83;98812.50;5124141;27;20059;-75
2023/05/01 01:06:21;;;;;;;0.10;0.10;;;;;;;6.80;83.66;98825.81;5109625;27;20072;-76
2023/05/01 01:08:59;;;;;;;0.10;0.10;;;;;;;6.84;83.58;98828.00;5086322;28;20541;-75
2023/05/01 01:11:34;;;;;;;0.15;0.15;;;;;;;6.85;83.47;98829.63;5105408;28;20087;-76
2023/05/01 01:14:10;;;;;;;0.10;0.10;;;;;;;6.89;83.23;98844.28;5119939;28;20067;-75
2023/05/01 01:16:44;;;;;;;0.10;0.10;;;;;;;6.85;83.10;98827.69;5082613;28;20071;-76
2023/05/01 01:19:35;;;;;;;0.10;0.10;;;;;;;6.94;82.96;98812.47;5119553;28;20434;-75
2023/05/01 01:22:11;;;;;;;0.10;0.10;;;;;;;6.95;82.57;98786.13;5114465;28;20088;-76
2023/05/01 01:24:56;;;;;;;0.10;0.10;;;;;;;6.89;82.17;98769.00;5102294;28;20118;-77
2023/05/01 01:28:07;;;;;;;0.10;0.10;;;;;;;6.83;82.14;98761.94;5116087;28;20268;-76
2023/05/01 01:31:14;;;;;;;0.10;0.10;;;;;;;6.73;82.39;98738.34;5099881;28;20308;-75
2023/05/01 01:34:00;;;;;;;0.20;0.20;;;;;;;6.58;82.57;98731.03;5086440;28;20043;-76
2023/05/01 01:36:36;;;;;;;0.10;0.10;;;;;;;6.48;83.10;98731.06;5118217;28;20410;-76
2023/05/01 01:39:10;;;;;;;0.10;0.10;;;;;;;6.38;83.55;98740.81;5078324;28;20043;-76
2023/05/01 01:41:38;;;;;;;0.10;0.10;;;;;;;6.37;84.07;98746.53;5121065;27;20731;-76
2023/05/01 01:44:11;;;;;;;0.10;0.10;;;;;;;6.39;84.43;98739.75;5090730;27;20657;-76
2023/05/01 01:46:41;;;;;;;0.10;0.10;;;;;;;6.48;84.27;98741.91;5117625;27;20416;-76
2023/05/01 01:49:16;;;;;;;0.10;0.10;;;;;;;6.52;84.00;98746.53;5106977;27;20055;-75
2023/05/01 01:51:44;;;;;;;0.10;0.10;;;;;;;6.58;83.72;98746.50;5124451;27;20513;-74
2023/05/01 01:54:13;;;;;;;0.10;0.10;;;;;;;6.62;83.61;98737.53;5084904;27;20562;-75
2023/05/01 01:56:41;;;;;;;0.10;0.10;;;;;;;6.63;83.46;98731.03;5122458;27;20138;-75
2023/05/01 01:59:09;;;;;;;0.17;0.17;;;;;;;6.67;83.48;98731.31;5096718;27;20075;-76
2023/05/01 02:01:38;;;;;;;0.10;0.10;;;;;;;6.72;83.57;98750.28;5088450;27;20143;-75
2023/05/01 02:04:05;;;;;;;0.10;0.10;;;;;;;6.75;83.47;98749.72;5112020;27;20429;-75
2023/05/01 02:06:35;;;;;;;0.10;0.10;;;;;;;6.83;83.30;98753.00;5090441;27;20055;-75
2023/05/01 02:09:05;;;;;;;0.20;0.20;;;;;;;6.83;82.79;98748.38;5103054;27;20130;-75
2023/05/01 02:11:32;;;;;;;0.13;0.13;;;;;;;6.85;82.74;98742.66;5100721;27;20063;-75
2023/05/01 02:14:02;;;;;;;0.10;0.10;;;;;;;6.81;82.66;98726.09;5108216;27;20047;-75
2023/05/01 02:16:49;;;;;;;0.20;0.20;;;;;;;6.77;82.47;98709.50;5098935;27;20050;-74
2023/05/01 02:19:17;;;;;;;0.13;0.13;;;;;;;6.85;82.57;98735.31;5111137;27;20344;-74
2023/05/01 02:21:47;;;;;;;0.10;0.10;;;;;;;6.88;82.67;98740.22;5093656;27;20145;-74
2023/05/01 02:24:14;;;;;;;0.13;0.13;;;;;;;6.91;82.35;98760.56;5081756;27;20048;-75
2023/05/01 02:26:43;;;;;;;0.10;0.10;;;;;;;6.92;82.11;98776.59;5103120;28;20568;-74
2023/05/01 02:29:10;;;;;;;0.10;0.10;;;;;;;6.93;81.85;98777.41;5113618;27;20075;-75
2023/05/01 02:31:36;;;;;;;0.10;0.10;;;;;;;6.93;81.91;98761.94;5091264;27;20103;-75
2023/05/01 02:34:03;;;;;;;0.20;0.20;;;;;;;6.99;81.66;98781.75;5126810;27;20332;-75
2023/05/01 02:36:32;;;;;;;0.10;0.10;;;;;;;7.00;81.46;98788.00;5114219;27;20049;-74
2023/05/01 02:39:01;;;;;;;0.10;0.10;;;;;;;7.07;81.50;98808.34;5097418;27;20055;-74
2023/05/01 02:41:29;;;;;;;0.10;0.10;;;;;;;7.12;81.29;98818.41;5092215;27;20081;-74
2023/05/01 02:44:02;;;;;;;0.20;0.20;;;;;;;7.15;81.08;98820.56;5092566;27;20066;-75
2023/05/01 02:46:31;;;;;;;0.17;0.17;;;;;;;7.17;80.91;98829.25;5093810;27;20070;-74
2023/05/01 02:49:00;;;;;;;0.20;0.20;;;;;;;7.15;80.66;98831.44;5071972;27;20043;-74
2023/05/01 02:51:28;;;;;;;0.13;0.13;;;;;;;7.22;80.69;98829.28;5103720;27;20047;-74
2023/05/01 02:53:54;;;;;;;0.10;0.10;;;;;;;7.26;80.42;98826.00;5088521;27;20290;-74
2023/05/01 02:56:25;;;;;;;0.20;0.20;;;;;;;7.28;80.09;98821.09;5092687;27;20438;-75
2023/05/01 02:58:53;;;;;;;0.10;0.10;;;;;;;7.27;79.87;98808.59;5092263;27;20146;-76
2023/05/01 03:01:19;;;;;;;0.17;0.17;;;;;;;7.30;79.68;98797.97;5116374;27;20111;-76
2023/05/01 03:03:46;;;;;;;0.17;0.17;;;;;;;7.30;79.40;98792.53;5120531;27;20806;-75
2023/05/01 03:06:13;;;;;;;0.20;0.20;;;;;;;7.30;79.21;98786.28;5093131;27;20138;-75
2023/05/01 03:08:40;;;;;;;0.10;0.10;;;;;;;7.34;79.06;98785.44;5109244;27;20047;-75
2023/05/01 03:11:06;;;;;;;0.20;0.20;;;;;;;7.38;79.15;98794.66;5104408;27;20451;-76
2023/05/01 03:13:34;;;;;;;0.10;0.10;;;;;;;7.41;79.22;98784.31;5088829;27;20099;-76
2023/05/01 03:16:01;;;;;;;0.10;0.10;;;;;;;7.41;79.27;98781.59;5124110;27;20059;-76
2023/05/01 03:18:28;;;;;;;0.10;0.10;;;;;;;7.46;79.14;98792.47;5120032;27;20057;-75
2023/05/01 03:20:58;;;;;;;0.20;0.20;;;;;;;7.49;79.17;98791.91;5114623;27;20051;-76
2023/05/01 03:23:27;;;;;;;0.10;0.10;;;;;;;7.54;78.99;98791.88;5079186;27;20043;-75
2023/05/01 03:25:53;;;;;;;0.20;0.20;;;;;;;7.55;79.16;98790.78;5111509;27;20047;-75
2023/05/01 03:28:22;;;;;;;0.20;0.20;;;;;;;7.59;79.00;98812.81;5094290;27;20345;-75
2023/05/01 03:30:52;;;;;;;0.20;0.20;;;;;;;7.64;78.77;98829.09;5111918;27;20076;-75
2023/05/01 03:33:19;;;;;;;0.10;0.10;;;;;;;7.66;78.86;98824.22;5114987;27;20043;-76
2023/05/01 03:35:45;;;;;;;0.20;0.20;;;;;;;7.70;78.68;98821.72;5094436;27;20537;-75
2023/05/01 03:38:11;;;;;;;0.10;0.10;;;;;;;7.72;78.46;98817.66;5127597;27;20127;-74
2023/05/01 03:40:57;;;;;;;0.20;0.20;;;;;;;7.77;78.60;98814.09;5115393;27;20126;-75
2023/05/01 03:43:56;;;;;;;0.20;0.20;;;;;;;7.84;78.55;98816.50;5112422;27;20091;-76
2023/05/01 03:46:32;;;;;;;0.10;0.10;;;;;;;7.94;78.12;98811.81;5111268;27;20082;-75
2023/05/01 03:48:59;;;;;;;0.20;0.20;;;;;;;8.00;77.97;98822.66;5111246;27;20415;-75
2023/05/01 03:51:28;;;;;;;0.10;0.10;;;;;;;7.99;77.68;98821.03;5105554;27;20057;-74
2023/05/01 03:53:57;;;;;;;0.20;0.20;;;;;;;7.99;77.45;98821.03;5105619;27;20079;-75
2023/05/01 03:56:26;;;;;;;0.10;0.10;;;;;;;7.95;77.48;98831.66;5106415;27;20068;-75
2023/05/01 03:58:52;;;;;;;0.20;0.20;;;;;;;7.93;77.55;98823.81;5106889;27;20099;-74
2023/05/01 04:01:19;;;;;;;0.10;0.10;;;;;;;7.96;77.54;98817.00;5095404;27;20119;-75
2023/05/01 04:03:48;;;;;;;0.10;0.10;;;;;;;8.00;77.24;98817.22;5092414;27;20088;-75
2023/05/01 04:06:16;;;;;;;0.10;0.10;;;;;;;8.08;77.35;98806.53;5104963;27;20498;-76
2023/05/01 04:08:42;;;;;;;;;;;;;;;8.18;77.08;98808.38;5109633;27;20452;-75
2023/05/01 04:11:08;;;;;;;0.20;0.20;;;;;;;8.25;76.51;98816.22;5075577;27;19923;-75
2023/05/01 04:13:34;;;;;;;0.10;0.10;;;;;;;8.31;76.21;98814.28;5121426;27;20149;-75
2023/05/01 04:16:01;;;;;;;0.20;0.20;;;;;;;8.38;75.75;98822.97;5087884;27;20047;-75
2023/05/01 04:18:28;;;;;;;0.10;0.10;;;;;;;8.42;75.85;98825.91;5113970;27;20104;-76
2023/05/01 04:20:59;;;;;;;0.20;0.20;;;;;;;8.45;75.61;98828.09;5090040;27;20054;-75
2023/05/01 04:23:26;;;;;;;0.17;0.17;;;;;;;8.46;75.75;98830.50;5107443;27;20043;-76
2023/05/01 04:25:56;;;;;;;0.17;0.17;;;;;;;8.42;75.49;98826.75;5110483;27;20142;-76
2023/05/01 04:28:22;;;;;;;0.13;0.13;;;;;;;8.26;75.28;98823.31;5070248;27;20115;-76
2023/05/01 04:30:49;;;;;;;0.10;0.10;;;;;;;8.25;75.50;98832.56;5105794;27;20485;-76
2023/05/01 04:33:15;;;;;;;0.20;0.20;;;;;;;8.25;75.92;98834.50;5123529;27;20154;-75
2023/05/01 04:35:42;;;;;;;0.20;0.20;;;;;;;8.31;75.70;98849.69;5113660;27;20421;-75
2023/05/01 04:38:10;;;;;;;0.10;0.10;;;;;;;8.29;75.70;98841.00;5112362;27;20209;-75
2023/05/01 04:40:37;;;;;;;0.10;0.10;;;;;;;8.35;75.59;98851.56;5101206;27;20172;-75
2023/05/01 04:43:04;;;;;;;0.20;0.20;;;;;;;8.29;75.43;98844.53;5123037;27;20047;-75
2023/05/01 04:45:31;;;;;;;0.20;0.20;;;;;;;8.35;75.30;98843.41;5107959;27;20043;-75
2023/05/01 04:47:58;;;;;;;;;;;;;;;8.38;75.39;98847.47;5086376;27;20058;-75
2023/05/01 04:50:24;;;;;;;0.10;0.10;;;;;;;8.39;75.12;98849.09;5085430;27;19924;-75
2023/05/01 04:52:50;;;;;;;0.20;0.20;;;;;;;8.43;74.90;98841.16;5081965;27;20046;-75
2023/05/01 04:55:18;;;;;;;0.10;0.10;;;;;;;8.43;75.02;98857.50;5123348;27;20059;-74
2023/05/01 04:58:10;;;;;;;0.20;0.20;;;;;;;8.38;74.95;98847.47;5092363;27;20103;-75
2023/05/01 05:00:37;;;;;;;0.10;0.10;;;;;;;8.35;75.40;98851.56;5094304;28;20532;-74
2023/05/01 05:03:06;;;;;;;0.20;0.20;;;;;;;8.37;75.72;98856.75;5113163;27;20050;-75
2023/05/01 05:05:33;;;;;;;0.20;0.20;;;;;;;8.34;75.98;98851.84;5113631;27;20055;-75
2023/05/01 05:07:59;;;;;;;0.10;0.10;;;;;;;8.32;76.39;98846.69;5119449;27;20051;-75
2023/05/01 05:10:34;;;;;;;0.10;0.10;;;;;;;8.35;76.41;98845.31;5069424;28;20043;-75
2023/05/01 05:13:14;;;;;;;0.20;0.20;;;;;;;8.33;76.47;98851.06;5106815;28;20047;-75
2023/05/01 05:15:42;;;;;;;0.20;0.20;;;;;;;8.31;76.58;98850.53;5113640;28;20063;-75
2023/05/01 05:18:10;;;;;;;0.17;0.17;;;;;;;8.32;76.75;98857.59;5101773;27;20051;-75
2023/05/01 05:20:38;;;;;;;0.20;0.20;;;;;;;8.32;76.68;98849.41;5110904;27;20532;-76
2023/05/01 05:23:05;;;;;;;0.10;0.10;;;;;;;8.27;76.95;98852.16;5111798;27;20047;-75
2023/05/01 05:25:32;;;;;;;0.20;0.20;;;;;;;8.28;77.16;98855.72;5111237;27;20053;-75
2023/05/01 05:28:00;;;;;;;0.20;0.20;;;;;;;8.27;77.82;98856.81;5108014;27;20084;-75
2023/05/01 05:30:27;;;;;;;0.20;0.20;;;;;;;8.30;77.75;98859.78;5110307;27;20473;-75
2023/05/01 05:32:53;;;;;;;0.20;0.20;;;;;;;8.38;77.49;98859.16;5111528;27;20047;-75
2023/05/01 05:35:21;;;;;;;0.20;0.20;;;;;;;8.43;77.16;98865.69;5090184;27;20050;-75
2023/05/01 05:37:47;;;;;;;0.20;0.20;;;;;;;8.32;76.84;98857.59;5091417;27;20488;-74
2023/05/01 05:40:14;;;;;;;0.43;0.20;;;;;;;8.31;77.03;98861.41;5118068;27;20553;-74
2023/05/01 05:42:53;;;;;;;0.20;0.20;;;;;;;8.33;77.12;98863.84;5114357;27;20485;-75
2023/05/01 05:45:22;;;;;;;0.10;0.10;;;;;;;8.39;77.13;98870.91;5110706;27;20069;-75
2023/05/01 05:47:48;;;;;;;0.20;0.20;;;;;;;8.38;76.82;98867.34;5118245;27;20138;-75
2023/05/01 05:50:15;;;;;;;0.20;0.20;;;;;;;8.46;76.66;98862.41;5097408;27;20522;-75
2023/05/01 05:52:44;;;;;;;0.20;0.20;;;;;;;8.50;76.78;98861.56;5105340;27;20289;-74
2023/05/01 05:55:10;;;;;;;0.20;0.20;;;;;;;8.60;76.48;98876.22;5121345;27;20058;-73
2023/05/01 05:57:37;;;;;;;0.20;0.20;;;;;;;8.64;76.57;98867.19;5110916;27;20039;-73
2023/05/01 06:00:08;;;;;;;0.20;0.20;;;;;;;8.73;76.10;98874.75;5114949;27;20329;-74
2023/05/01 06:02:48;;;;;;;0.20;0.20;;;;;;;8.69;76.11;98877.25;5097935;27;20844;-74
2023/05/01 06:05:15;;;;;;;0.20;0.20;;;;;;;8.76;76.09;98875.00;5113652;27;20098;-74
2023/05/01 06:07:42;;;;;;;0.20;0.20;;;;;;;8.79;75.90;98879.88;5110795;27;20043;-75
2023/05/01 06:10:10;;;;;;;0.20;0.20;;;;;;;8.83;75.99;98877.41;5111791;27;20135;-74
2023/05/01 06:12:37;;;;;;;0.20;0.20;;;;;;;8.88;75.50;98882.00;5107116;27;20047;-74
2023/05/01 06:15:06;;;;;;;0.20;0.20;;;;;;;8.90;75.19;98885.25;5093347;27;20039;-74
2023/05/01 06:17:34;;;;;;;0.20;0.20;;;;;;;8.89;75.07;98894.53;4752673;27;10000058;-74
2023/05/01 06:20:05;;;;;;;0.20;0.20;;;;;;;8.87;74.95;98899.44;5104918;27;20292;-74
2023/05/01 06:22:31;;;;;;;0.20;0.20;;;;;;;8.84;75.07;98891.84;5111147;27;20067;-75
2023/05/01 06:25:03;;;;;;;0.20;0.20;;;;;;;8.87;74.67;98894.00;5106942;27;20176;-74
2023/05/01 06:27:30;;;;;;;0.20;0.20;;;;;;;8.97;74.37;98884.91;5108745;27;20232;-74
2023/05/01 06:29:57;;;;;;;0.20;0.20;;;;;;;9.08;74.20;98902.81;5104705;27;20453;-74
2023/05/01 06:32:24;;;;;;;0.20;0.20;;;;;;;9.10;73.33;98907.97;5090742;27;20066;-74
2023/05/01 06:34:55;;;;;;;0.20;0.20;;;;;;;9.04;73.57;98907.19;5089225;27;20069;-74
2023/05/01 06:37:23;;;;;;;0.20;0.20;;;;;;;9.14;73.01;98914.50;5078613;27;20066;-74
2023/05/01 06:39:50;;;;;;;0.20;0.20;;;;;;;9.15;73.14;98919.66;5107201;27;20047;-74
2023/05/01 06:42:16;;;;;;;0.30;0.30;;;;;;;9.10;73.06;98919.72;5115470;27;20054;-74
2023/05/01 06:44:43;;;;;;;0.20;0.20;;;;;;;9.16;72.77;98915.81;5110745;27;20054;-75
2023/05/01 06:47:09;;;;;;;0.20;0.20;;;;;;;9.31;72.77;98916.78;5114504;27;20043;-76
2023/05/01 06:49:36;;;;;;;0.20;0.20;;;;;;;9.45;72.04;98912.28;5125214;27;20039;-77
2023/05/01 06:52:07;;;;;;;0.20;0.20;;;;;;;9.56;71.34;98918.41;5123536;27;20054;-76
2023/05/01 06:54:34;;;;;;;0.20;0.20;;;;;;;9.64;71.19;98926.00;5124869;27;20131;-77
2023/05/01 06:57:00;;;;;;;;;;;;;;;9.80;70.59;98925.81;5124428;27;20047;-77
2023/05/01 06:59:27;;;;;;;0.20;0.20;;;;;;;9.87;69.68;98930.94;5109438;27;20302;-76
2023/05/01 07:01:54;;;;;;;0.20;0.20;;;;;;;9.92;69.23;98939.03;5077818;27;20159;-77
2023/05/01 07:04:20;;;;;;;0.20;0.20;;;;;;;9.97;68.35;98938.19;5114581;27;20141;-76
2023/05/01 07:06:47;;;;;;;0.20;0.20;;;;;;;9.93;68.25;98944.22;5082768;27;20148;-76
2023/05/01 07:09:13;;;;;;;0.20;0.20;;;;;;;10.04;68.35;98944.09;5099605;27;20047;-76
2023/05/01 07:11:43;;;;;;;0.20;0.20;;;;;;;10.09;66.92;98952.22;5104258;27;20096;-76
2023/05/01 07:14:10;;;;;;;0.30;0.30;;;;;;;10.02;66.43;98951.75;5112697;27;20071;-76
2023/05/01 07:16:36;;;;;;;0.30;0.30;;;;;;;10.11;66.17;98954.66;5104659;27;20039;-76
2023/05/01 07:19:02;;;;;;;0.20;0.20;;;;;;;10.11;65.48;98965.59;5117734;27;20047;-76
2023/05/01 07:21:30;;;;;;;0.20;0.20;;;;;;;10.07;65.57;98955.25;5116856;27;20498;-76
2023/05/01 07:23:56;;;;;;;0.20;0.20;;;;;;;10.07;65.33;98963.44;5117191;27;20043;-76
2023/05/01 07:26:25;;;;;;;0.30;0.30;;;;;;;10.05;64.77;98967.56;5104858;27;20039;-76
2023/05/01 07:28:53;;;;;;;0.20;0.20;;;;;;;10.06;64.98;98982.84;5116351;27;20043;-76
2023/05/01 07:31:24;;;;;;;0.20;0.20;;;;;;;10.04;64.12;98977.69;5102193;27;20173;-77
2023/05/01 07:33:54;;;;;;;0.20;0.20;;;;;;;10.01;64.28;98974.72;5104876;27;20672;-76
2023/05/01 07:36:21;;;;;;;0.20;0.20;;;;;;;10.25;64.28;98976.63;5100045;27;20039;-76
2023/05/01 07:38:47;;;;;;;0.20;0.20;;;;;;;10.49;62.79;98973.88;5068557;27;20059;-76
2023/05/01 07:41:14;;;;;;;0.40;0.30;;;;;;;10.71;62.28;98986.97;5085666;28;20189;-76
2023/05/01 07:43:42;;;;;;;0.30;0.30;;;;;;;10.70;62.33;98985.34;5102697;27;20134;-76
2023/05/01 07:46:10;;;;;;;0.20;0.20;;;;;;;10.84;62.10;98990.03;5083971;28;20047;-77
2023/05/01 07:48:36;;;;;;;0.30;0.30;;;;;;;10.92;62.18;98989.38;5072896;27;20074;-76
2023/05/01 07:51:03;;;;;;;0.30;0.30;;;;;;;11.13;61.75;98995.34;5083044;28;20051;-76
2023/05/01 07:53:30;;;;;;;0.28;0.28;;;;;;;11.24;61.40;98992.44;5088643;27;20046;-76
2023/05/01 07:56:05;;;;;;;0.30;0.30;;;;;;;11.41;61.27;98998.19;5106534;27;20275;-77
2023/05/01 07:58:34;;;;;;;0.20;0.20;;;;;;;11.67;60.58;98996.94;5067169;27;20051;-76
2023/05/01 08:01:02;;;;;;;0.30;0.30;;;;;;;11.86;60.01;99007.78;5074801;27;20046;-76
2023/05/01 08:03:30;;;;;;;0.30;0.30;;;;;;;12.05;59.25;99005.81;5108600;27;20107;-75
2023/05/01 08:05:57;;;;;;;0.20;0.20;;;;;;;12.17;58.31;99005.31;5079054;27;20100;-76
2023/05/01 08:08:23;;;;;;;0.30;0.30;;;;;;;12.25;57.04;99003.78;5086523;27;20071;-75
2023/05/01 08:10:51;;;;;;;0.22;0.22;;;;;;;12.36;56.88;99009.84;5104961;27;20039;-75
2023/05/01 08:13:17;;;;;;;0.28;0.28;;;;;;;12.27;57.36;99014.44;5088915;28;20043;-76
2023/05/01 08:15:45;;;;;;;0.30;0.30;;;;;;;12.29;56.96;99010.25;5110379;27;20047;-76
2023/05/01 08:18:20;;;;;;;0.20;0.20;;;;;;;12.31;56.32;99013.50;5057171;28;20347;-76
2023/05/01 08:20:51;;;;;;;0.25;0.25;;;;;;;12.12;56.65;99012.81;5081336;27;20039;-77
2023/05/01 08:23:17;;;;;;;0.20;0.20;;;;;;;11.92;56.48;99012.88;5081610;28;20937;-77
2023/05/01 08:25:49;;;;;;;0.20;0.20;;;;;;;11.78;56.24;99023.81;5066843;27;20506;-77
2023/05/01 08:28:17;;;;;;;0.20;0.20;;;;;;;11.58;56.91;99024.19;5067558;27;20052;-77
2023/05/01 08:30:43;;;;;;;0.20;0.20;;;;;;;11.68;57.16;99034.94;5082133;27;20050;-77
2023/05/01 08:33:09;;;;;;;0.20;0.20;;;;;;;11.54;56.48;99034.91;5095321;27;20054;-77
2023/05/01 08:35:36;;;;;;;0.25;0.25;;;;;;;11.32;56.24;99046.50;5074532;28;20039;-77
2023/05/01 08:38:03;;;;;;;0.30;0.30;;;;;;;11.15;56.68;99050.59;5091527;27;20039;-77
2023/05/01 08:40:31;;;;;;;;;;;;;;;11.11;56.27;99046.81;5088107;27;20040;-77
2023/05/01 08:42:59;;;;;;;0.20;0.20;;;;;;;11.09;56.16;99057.25;5107422;27;19923;-77
2023/05/01 08:45:29;;;;;;;0.20;0.20;;;;;;;11.05;56.48;99054.28;5110244;27;20047;-78
2023/05/01 08:47:57;;;;;;;0.20;0.20;;;;;;;11.12;56.83;99055.84;5089940;28;20586;-75
2023/05/01 08:50:24;;;;;;;;;;;;;;;11.14;57.14;99057.16;5109373;27;20038;-77
2023/05/01 08:52:51;;;;;;;0.20;0.20;;;;;;;11.02;57.51;99052.16;5087435;27;20316;-77
2023/05/01 08:55:20;;;;;;;0.20;0.20;;;;;;;11.03;57.89;99058.44;5090799;27;20044;-77
2023/05/01 08:57:47;;;;;;;0.30;0.30;;;;;;;11.17;57.31;99051.09;5107671;27;20367;-76
2023/05/01 09:00:20;;;;;;;0.25;0.25;;;;;;;11.11;57.68;99048.75;5106857;27;20043;-77
2023/05/01 09:02:48;;;;;;;0.25;0.25;;;;;;;11.17;57.86;99063.97;5096860;27;20840;-77
2023/05/01 09:05:14;;;;;;;;;;;;;;;11.17;57.98;99078.47;5112708;27;20072;-76
2023/05/01 09:07:41;;;;;;;0.25;0.20;;;;;;;11.10;57.95;99078.03;5095099;28;19994;-77
2023/05/01 09:10:11;;;;;;;0.20;0.20;;;;;;;11.17;58.01;99085.88;5112923;27;20122;-76
2023/05/01 09:12:43;;;;;;;0.25;0.25;;;;;;;11.29;57.25;99077.22;5106009;28;20506;-76
2023/05/01 09:15:10;;;;;;;0.30;0.30;;;;;;;11.44;56.48;99084.34;5095687;28;20152;-76
2023/05/01 09:17:37;;;;;;;0.20;0.20;;;;;;;11.52;56.04;99088.34;5079771;28;20043;-77
2023/05/01 09:20:05;;;;;;;0.30;0.30;;;;;;;11.42;55.82;99095.63;5115568;28;20042;-76
2023/05/01 09:22:33;;;;;;;0.52;0.30;;;;;;;11.37;55.97;99101.16;5087822;28;20203;-76
2023/05/01 09:25:00;;;;;;;0.20;0.20;;;;;;;11.48;56.03;99097.16;5112126;28;20043;-77
2023/05/01 09:27:28;;;;;;;0.20;0.20;;;;;;;11.72;55.74;99090.75;5093429;28;20046;-77
2023/05/01 09:29:56;;;;;;;0.30;0.30;;;;;;;11.79;55.57;99101.31;5078073;28;20043;-76
2023/05/01 09:32:26;;;;;;;0.20;0.20;;;;;;;11.80;55.69;99097.47;5110152;28;20063;-76
2023/05/01 09:34:54;;;;;;;0.30;0.30;;;;;;;11.91;54.87;99109.84;5113430;28;20138;-77
2023/05/01 09:37:28;;;;;;;0.30;0.30;;;;;;;11.98;54.71;99105.94;5114405;28;20070;-77
2023/05/01 09:40:06;;;;;;;0.43;0.43;;;;;;;12.51;53.14;99101.13;5082561;28;20454;-77
2023/05/01 09:42:34;;;;;;;0.40;0.40;;;;;;;12.80;51.85;99098.09;5114004;28;20050;-77
2023/05/01 09:45:04;;;;;;;0.30;0.30;;;;;;;13.12;51.50;99096.28;5107178;28;20049;-76
2023/05/01 09:47:33;;;;;;;0.30;0.30;;;;;;;13.51;50.67;99098.72;5095180;28;20137;-77
2023/05/01 09:49:59;;;;;;;0.30;0.30;;;;;;;13.44;49.55;99097.22;5115614;28;20062;-77
2023/05/01 09:52:27;;;;;;;0.32;0.30;;;;;;;13.23;50.12;99105.09;5080887;28;20066;-76
2023/05/01 09:55:11;;;;;;;0.30;0.30;;;;;;;13.22;50.72;99103.47;5092398;28;20533;-75
2023/05/01 09:57:37;;;;;;;1.75;0.40;;;;;;;13.43;49.90;99101.09;5114535;28;20145;-76
2023/05/01 10:00:07;;;;;;;0.40;0.40;;;;;;;13.80;48.57;99106.50;5093105;28;20051;-76
2023/05/01 10:02:34;;;;;;;0.30;0.30;;;;;;;13.81;47.63;99099.88;5114227;27;20047;-76
2023/05/01 10:05:00;;;;;;;0.40;0.40;;;;;;;13.79;48.25;99112.34;5097315;27;20056;-76
2023/05/01 10:07:29;;;;;;;0.40;0.40;;;;;;;13.46;49.50;99100.47;5116582;27;20062;-76
2023/05/01 10:09:55;;;;;;;0.30;0.30;;;;;;;13.39;49.55;99113.78;5122092;27;20047;-76
2023/05/01 10:12:26;;;;;;;0.30;0.30;;;;;;;13.30;49.71;99119.19;5115896;27;20516;-76
2023/05/01 10:14:53;;;;;;;0.43;0.30;;;;;;;12.99;50.38;99124.56;5112006;27;20508;-75
2023/05/01 10:17:21;;;;;;;0.30;0.30;;;;;;;12.61;50.62;99123.69;5097360;28;20088;-75
2023/05/01 10:19:48;;;;;;;0.30;0.30;;;;;;;12.29;51.39;99130.88;5098824;27;20432;-76
2023/05/01 10:22:15;;;;;;;0.20;0.20;;;;;;;12.03;52.18;99153.25;5094729;28;20075;-76
2023/05/01 10:24:44;;;;;;;0.20;0.20;;;;;;;11.87;52.29;99147.19;5116596;27;20050;-77
2023/05/01 10:27:12;;;;;;;0.30;0.30;;;;;;;11.80;52.15;99135.81;5081383;28;20039;-76
2023/05/01 10:29:41;;;;;;;0.25;0.25;;;;;;;11.91;52.51;99131.78;5105889;27;20047;-75
2023/05/01 10:32:08;;;;;;;0.30;0.30;;;;;;;12.04;52.23;99135.72;5119184;27;20112;-75
2023/05/01 10:34:42;;;;;;;0.20;0.20;;;;;;;11.73;52.37;99141.69;5119765;27;20053;-76
2023/05/01 10:37:17;;;;;;;0.20;0.20;;;;;;;11.36;53.40;99159.75;5117691;27;20064;-75
2023/05/01 10:39:43;;;;;;;0.22;0.20;;;;;;;10.87;54.96;99151.63;5114048;27;20078;-76
2023/05/01 10:42:12;;;;;;;0.20;0.20;;;;;;;10.59;56.21;99161.53;5114127;27;20446;-75
2023/05/01 10:44:40;;;;;;;0.22;0.20;;;;;;;10.36;57.31;99164.75;4757037;27;10000203;-75
2023/05/01 10:47:43;;;;;;;0.10;0.10;;;;;;;10.26;58.57;99177.69;5120013;27;20042;-75
2023/05/01 10:50:14;;;;;;;0.20;0.20;;;;;;;10.12;59.95;99193.94;5109023;27;20547;-75
2023/05/01 10:53:17;;;;;;;0.20;0.20;;;;;;;9.91;60.31;99185.91;5114484;27;20039;-75
2023/05/01 10:55:45;;;;;;;0.20;0.20;;;;;;;9.77;60.94;99196.69;5115060;27;20104;-75
2023/05/01 10:58:12;;;;;;;0.30;0.30;;;;;;;9.65;61.29;99203.28;5093217;27;20147;-75
2023/05/01 11:00:39;;;;;;;0.20;0.20;;;;;;;9.69;61.63;99216.38;5109106;27;20062;-75
2023/05/01 11:03:33;;;;;;;0.20;0.20;;;;;;;9.75;61.31;99209.78;5102568;27;20460;-75
2023/05/01 11:06:07;;;;;;;0.22;0.22;;;;;;;9.60;61.28;99225.19;5096621;27;20565;-75
2023/05/01 11:08:36;;;;;;;0.45;0.30;;;;;;;9.50;61.45;99195.22;5089341;27;20075;-75
2023/05/01 11:11:38;;;;;;;0.20;0.20;;;;;;;9.45;61.89;99215.16;5106590;27;20055;-75
2023/05/01 11:14:06;;;;;;;0.20;0.20;;;;;;;9.40;62.52;99241.66;5103727;27;20052;-75
2023/05/01 11:16:44;;;;;;;0.20;0.20;;;;;;;9.37;62.47;99223.94;5070242;28;20143;-76
2023/05/01 11:19:46;;;;;;;0.20;0.20;;;;;;;9.49;62.14;99245.44;5079651;27;20394;-75
2023/05/01 11:22:14;;;;;;;0.20;0.20;;;;;;;9.40;61.79;99241.66;5089322;28;20051;-75
2023/05/01 11:24:56;;;;;;;0.20;0.20;;;;;;;9.34;62.26;99259.94;5071210;27;20043;-76
2023/05/01 11:27:23;;;;;;;0.10;0.10;;;;;;;9.19;62.43;99261.63;5093459;27;20043;-75
2023/05/01 11:29:49;;;;;;;0.20;0.20;;;;;;;9.04;62.78;99280.78;5114507;27;20065;-75
2023/05/01 11:32:23;;;;;;;0.20;0.20;;;;;;;8.84;63.24;99279.75;5099999;27;20455;-75
2023/05/01 11:34:50;;;;;;;0.20;0.20;;;;;;;8.64;64.07;99275.97;5095276;27;20047;-75
2023/05/01 11:37:39;;;;;;;0.20;0.20;;;;;;;8.51;64.38;99293.72;5115033;27;20051;-75
2023/05/01 11:40:19;;;;;;;0.20;0.20;;;;;;;8.32;65.32;99296.13;5097066;27;20048;-74
2023/05/01 11:42:45;;;;;;;0.10;0.10;;;;;;;8.15;66.04;99301.81;5079621;27;20501;-73
2023/05/01 11:45:12;;;;;;;0.20;0.20;;;;;;;8.03;66.41;99306.69;5094702;27;20124;-74
2023/05/01 11:47:38;;;;;;;0.20;0.20;;;;;;;7.84;66.94;99303.69;5121919;27;20068;-75
2023/05/01 11:50:07;;;;;;;0.52;0.30;;;;;;;7.79;67.61;99308.03;5090136;28;20452;-75
2023/05/01 11:52:43;;;;;;;0.25;0.20;;;;;;;7.80;67.81;99306.13;5080440;28;20055;-75